createdAt,value
2023-05-23T20:42:48.030Z,13.78
2023-05-23T20:45:16.668Z,13.75
2023-05-23T20:47:45.380Z,13.78
2023-05-23T20:50:14.355Z,13.79
2023-05-23T20:52:43.660Z,13.77
2023-05-23T20:55:12.410Z,13.73
2023-05-23T20:57:40.870Z,13.69
2023-05-23T21:00:10.030Z,13.67
2023-05-23T21:02:43.128Z,13.63
2023-05-23T21:05:12.147Z,13.60
2023-05-23T21:07:40.433Z,13.54
2023-05-23T21:10:08.960Z,13.47
2023-05-23T21:12:37.246Z,13.41
2023-05-23T21:15:06.830Z,13.35
2023-05-23T21:17:35.116Z,13.28
2023-05-23T21:20:03.700Z,13.20
2023-05-23T21:22:31.980Z,13.12
2023-05-23T21:25:00.446Z,13.09
2023-05-23T21:27:30.595Z,13.05
2023-05-23T21:29:59.017Z,13.01
2023-05-23T21:32:27.470Z,12.95
2023-05-23T21:34:57.303Z,12.88
2023-05-23T21:37:27.781Z,12.77
2023-05-23T21:39:56.947Z,12.67
2023-05-23T21:42:25.376Z,12.61
2023-05-23T21:44:53.732Z,12.55
2023-05-23T21:47:24.208Z,12.50
2023-05-23T21:49:54.584Z,12.45
2023-05-23T21:52:23.036Z,12.39
2023-05-23T21:54:51.924Z,12.37
2023-05-23T21:57:20.445Z,12.28
2023-05-23T21:59:48.705Z,12.21
2023-05-23T22:02:17.026Z,12.14
2023-05-23T22:04:46.964Z,12.08
2023-05-23T22:07:15.327Z,12.03
2023-05-23T22:09:43.625Z,12.01
2023-05-23T22:12:12.060Z,11.98
2023-05-23T22:14:40.322Z,12.00
2023-05-23T22:17:08.676Z,12.00
2023-05-23T22:19:37.061Z,11.97
2023-05-23T22:22:06.125Z,11.95
2023-05-23T22:24:34.901Z,11.91
2023-05-23T22:27:04.250Z,11.86
2023-05-23T22:29:33.932Z,11.80
2023-05-23T22:32:02.370Z,11.74
2023-05-23T22:34:31.190Z,11.69
2023-05-23T22:37:00.433Z,11.67
2023-05-23T22:39:29.765Z,11.63
2023-05-23T22:41:58.065Z,11.60
2023-05-23T22:44:26.861Z,11.56
2023-05-23T22:46:56.197Z,11.52
2023-05-23T22:49:26.739Z,11.53
2023-05-23T22:51:54.996Z,11.52
2023-05-23T22:54:24.141Z,11.50
2023-05-23T22:56:52.335Z,11.46
2023-05-23T22:59:20.572Z,11.39
2023-05-23T23:01:48.808Z,11.33
2023-05-23T23:04:17.102Z,11.30
2023-05-23T23:06:45.389Z,11.30
2023-05-23T23:09:13.745Z,11.30
2023-05-23T23:11:42.373Z,11.26
2023-05-23T23:14:10.800Z,11.21
2023-05-23T23:16:39.099Z,11.16
2023-05-23T23:19:07.503Z,11.10
2023-05-23T23:21:36.925Z,11.07
2023-05-23T23:24:06.638Z,11.03
2023-05-23T23:26:34.923Z,10.99
2023-05-23T23:29:03.794Z,10.97
2023-05-23T23:31:32.192Z,10.97
2023-05-23T23:34:00.658Z,10.97
2023-05-23T23:36:29.033Z,10.98
2023-05-23T23:38:57.904Z,10.99
2023-05-23T23:41:26.323Z,11.01
2023-05-23T23:43:56.839Z,10.99
2023-05-23T23:46:26.933Z,10.98
2023-05-23T23:48:56.452Z,10.99
2023-05-23T23:51:24.848Z,10.99
2023-05-23T23:53:53.526Z,11.03
2023-05-23T23:56:22.229Z,11.06
2023-05-23T23:58:51.005Z,11.06
